sensor_id;sensor_type;location;lat;lon;timestamp;P1;durP1;ratioP1;P2;durP2;ratioP2
12597;SDS011;6364;53.590;9.956;2023-12-28T00:01:07;3.10;;;2.03;;
12597;SDS011;6364;53.590;9.956;2023-12-28T00:03:32;7.88;;;3.08;;
12597;SDS011;6364;53.590;9.956;2023-12-28T00:05:58;4.82;;;2.38;;
12597;SDS011;6364;53.590;9.956;2023-12-28T00:08:23;4.65;;;2.28;;
12597;SDS011;6364;53.590;9.956;2023-12-28T00:10:49;6.22;;;2.35;;
12597;SDS011;6364;53.590;9.956;2023-12-28T00:13:14;4.88;;;2.63;;
12597;SDS011;6364;53.590;9.956;2023-12-28T00:15:39;4.70;;;2.67;;
12597;SDS011;6364;53.590;9.956;2023-12-28T00:18:05;5.63;;;2.30;;
12597;SDS011;6364;53.590;9.956;2023-12-28T00:20:30;3.90;;;2.38;;
12597;SDS011;6364;53.590;9.956;2023-12-28T00:22:55;3.10;;;2.20;;
12597;SDS011;6364;53.590;9.956;2023-12-28T00:25:23;5.78;;;2.78;;
12597;SDS011;6364;53.590;9.956;2023-12-28T00:27:48;5.47;;;2.75;;
12597;SDS011;6364;53.590;9.956;2023-12-28T00:30:14;4.13;;;2.38;;
12597;SDS011;6364;53.590;9.956;2023-12-28T00:32:39;4.25;;;2.42;;
12597;SDS011;6364;53.590;9.956;2023-12-28T00:35:08;5.90;;;2.60;;
12597;SDS011;6364;53.590;9.956;2023-12-28T00:37:34;3.97;;;2.25;;
12597;SDS011;6364;53.590;9.956;2023-12-28T00:39:59;4.63;;;2.72;;
12597;SDS011;6364;53.590;9.956;2023-12-28T00:42:25;5.60;;;2.45;;
12597;SDS011;6364;53.590;9.956;2023-12-28T00:44:50;8.05;;;2.63;;
12597;SDS011;6364;53.590;9.956;2023-12-28T00:47:15;5.78;;;2.90;;
12597;SDS011;6364;53.590;9.956;2023-12-28T00:49:41;4.00;;;2.60;;
12597;SDS011;6364;53.590;9.956;2023-12-28T00:52:06;6.60;;;2.45;;
12597;SDS011;6364;53.590;9.956;2023-12-28T00:54:31;3.88;;;2.80;;
12597;SDS011;6364;53.590;9.956;2023-12-28T00:56:57;4.32;;;2.55;;
12597;SDS011;6364;53.590;9.956;2023-12-28T00:59:22;8.05;;;3.22;;
12597;SDS011;6364;53.590;9.956;2023-12-28T01:01:48;4.47;;;3.00;;
12597;SDS011;6364;53.590;9.956;2023-12-28T01:04:13;7.90;;;3.10;;
12597;SDS011;6364;53.590;9.956;2023-12-28T01:06:39;6.78;;;3.22;;
12597;SDS011;6364;53.590;9.956;2023-12-28T01:09:05;3.25;;;2.70;;
12597;SDS011;6364;53.590;9.956;2023-12-28T01:11:31;9.18;;;3.42;;
12597;SDS011;6364;53.590;9.956;2023-12-28T01:13:57;6.25;;;3.20;;
12597;SDS011;6364;53.590;9.956;2023-12-28T01:16:24;4.00;;;2.78;;
12597;SDS011;6364;53.590;9.956;2023-12-28T01:18:49;4.60;;;2.80;;
12597;SDS011;6364;53.590;9.956;2023-12-28T01:21:14;6.20;;;3.25;;
12597;SDS011;6364;53.590;9.956;2023-12-28T01:23:41;8.18;;;3.30;;
12597;SDS011;6364;53.590;9.956;2023-12-28T01:26:11;7.30;;;3.28;;
12597;SDS011;6364;53.590;9.956;2023-12-28T01:28:37;4.97;;;2.40;;
12597;SDS011;6364;53.590;9.956;2023-12-28T01:31:03;4.95;;;2.97;;
12597;SDS011;6364;53.590;9.956;2023-12-28T01:33:29;5.32;;;3.03;;
12597;SDS011;6364;53.590;9.956;2023-12-28T01:35:54;6.47;;;2.97;;
12597;SDS011;6364;53.590;9.956;2023-12-28T01:38:20;5.85;;;2.70;;
12597;SDS011;6364;53.590;9.956;2023-12-28T01:40:45;5.80;;;3.10;;
12597;SDS011;6364;53.590;9.956;2023-12-28T01:43:11;8.40;;;3.25;;
12597;SDS011;6364;53.590;9.956;2023-12-28T01:45:36;7.30;;;3.25;;
12597;SDS011;6364;53.590;9.956;2023-12-28T01:48:01;3.50;;;2.80;;
12597;SDS011;6364;53.590;9.956;2023-12-28T01:50:28;4.10;;;2.70;;
12597;SDS011;6364;53.590;9.956;2023-12-28T01:52:53;6.05;;;3.08;;
12597;SDS011;6364;53.590;9.956;2023-12-28T01:55:19;6.20;;;3.38;;
12597;SDS011;6364;53.590;9.956;2023-12-28T01:57:46;5.07;;;3.55;;
12597;SDS011;6364;53.590;9.956;2023-12-28T02:00:11;3.78;;;2.97;;
12597;SDS011;6364;53.590;9.956;2023-12-28T02:02:37;3.22;;;2.90;;
12597;SDS011;6364;53.590;9.956;2023-12-28T02:05:02;7.15;;;3.28;;
12597;SDS011;6364;53.590;9.956;2023-12-28T02:07:31;5.25;;;2.70;;
12597;SDS011;6364;53.590;9.956;2023-12-28T02:09:57;7.03;;;3.30;;
12597;SDS011;6364;53.590;9.956;2023-12-28T02:12:22;7.45;;;3.50;;
12597;SDS011;6364;53.590;9.956;2023-12-28T02:14:48;4.95;;;3.40;;
12597;SDS011;6364;53.590;9.956;2023-12-28T02:17:16;4.97;;;3.78;;
12597;SDS011;6364;53.590;9.956;2023-12-28T02:19:47;5.68;;;3.47;;
12597;SDS011;6364;53.590;9.956;2023-12-28T02:22:16;5.47;;;3.35;;
12597;SDS011;6364;53.590;9.956;2023-12-28T02:27:28;5.88;;;3.28;;
12597;SDS011;6364;53.590;9.956;2023-12-28T02:29:55;5.18;;;3.05;;
12597;SDS011;6364;53.590;9.956;2023-12-28T02:32:22;4.38;;;3.47;;
12597;SDS011;6364;53.590;9.956;2023-12-28T02:35:02;6.43;;;3.67;;
12597;SDS011;6364;53.590;9.956;2023-12-28T02:37:32;5.45;;;3.40;;
12597;SDS011;6364;53.590;9.956;2023-12-28T02:40:01;5.80;;;3.35;;
12597;SDS011;6364;53.590;9.956;2023-12-28T02:42:27;4.45;;;3.05;;
12597;SDS011;6364;53.590;9.956;2023-12-28T02:44:52;6.43;;;3.28;;
12597;SDS011;6364;53.590;9.956;2023-12-28T02:47:18;7.20;;;3.15;;
12597;SDS011;6364;53.590;9.956;2023-12-28T02:49:43;8.63;;;3.47;;
12597;SDS011;6364;53.590;9.956;2023-12-28T02:52:08;6.70;;;3.65;;
12597;SDS011;6364;53.590;9.956;2023-12-28T02:54:34;6.70;;;3.20;;
12597;SDS011;6364;53.590;9.956;2023-12-28T02:56:59;4.72;;;3.60;;
12597;SDS011;6364;53.590;9.956;2023-12-28T02:59:24;8.52;;;3.75;;
12597;SDS011;6364;53.590;9.956;2023-12-28T03:01:50;4.38;;;3.30;;
12597;SDS011;6364;53.590;9.956;2023-12-28T03:04:15;4.90;;;3.50;;
12597;SDS011;6364;53.590;9.956;2023-12-28T03:06:41;6.47;;;3.75;;
12597;SDS011;6364;53.590;9.956;2023-12-28T03:09:06;7.75;;;3.97;;
12597;SDS011;6364;53.590;9.956;2023-12-28T03:11:32;9.70;;;3.85;;
12597;SDS011;6364;53.590;9.956;2023-12-28T03:13:57;6.85;;;3.70;;
12597;SDS011;6364;53.590;9.956;2023-12-28T03:16:22;7.45;;;3.83;;
12597;SDS011;6364;53.590;9.956;2023-12-28T03:18:48;5.95;;;3.58;;
12597;SDS011;6364;53.590;9.956;2023-12-28T03:21:13;8.48;;;3.53;;
12597;SDS011;6364;53.590;9.956;2023-12-28T03:23:39;5.82;;;3.72;;
12597;SDS011;6364;53.590;9.956;2023-12-28T03:26:04;8.98;;;4.22;;
12597;SDS011;6364;53.590;9.956;2023-12-28T03:28:29;7.75;;;3.63;;
12597;SDS011;6364;53.590;9.956;2023-12-28T03:30:55;8.90;;;4.38;;
12597;SDS011;6364;53.590;9.956;2023-12-28T03:33:20;5.25;;;3.60;;
12597;SDS011;6364;53.590;9.956;2023-12-28T03:35:46;5.75;;;3.75;;
12597;SDS011;6364;53.590;9.956;2023-12-28T03:38:11;7.68;;;3.83;;
12597;SDS011;6364;53.590;9.956;2023-12-28T03:40:36;5.72;;;4.00;;
12597;SDS011;6364;53.590;9.956;2023-12-28T03:43:02;8.13;;;3.97;;
12597;SDS011;6364;53.590;9.956;2023-12-28T03:45:27;7.32;;;3.60;;
12597;SDS011;6364;53.590;9.956;2023-12-28T03:47:53;7.20;;;3.80;;
12597;SDS011;6364;53.590;9.956;2023-12-28T03:50:18;6.38;;;3.92;;
12597;SDS011;6364;53.590;9.956;2023-12-28T03:52:43;6.47;;;4.03;;
12597;SDS011;6364;53.590;9.956;2023-12-28T03:55:09;5.82;;;3.67;;
12597;SDS011;6364;53.590;9.956;2023-12-28T03:57:34;9.88;;;4.15;;
12597;SDS011;6364;53.590;9.956;2023-12-28T04:00:00;5.70;;;3.35;;
12597;SDS011;6364;53.590;9.956;2023-12-28T04:02:25;8.52;;;3.40;;
12597;SDS011;6364;53.590;9.956;2023-12-28T04:04:55;6.75;;;3.80;;
12597;SDS011;6364;53.590;9.956;2023-12-28T04:07:22;6.57;;;4.13;;
12597;SDS011;6364;53.590;9.956;2023-12-28T04:09:48;10.77;;;3.95;;
12597;SDS011;6364;53.590;9.956;2023-12-28T04:12:13;8.85;;;3.95;;
12597;SDS011;6364;53.590;9.956;2023-12-28T04:14:38;9.05;;;3.78;;
12597;SDS011;6364;53.590;9.956;2023-12-28T04:17:04;5.25;;;3.53;;
12597;SDS011;6364;53.590;9.956;2023-12-28T04:19:30;5.40;;;3.55;;
12597;SDS011;6364;53.590;9.956;2023-12-28T04:21:55;6.97;;;3.72;;
12597;SDS011;6364;53.590;9.956;2023-12-28T04:24:21;8.52;;;3.78;;
12597;SDS011;6364;53.590;9.956;2023-12-28T04:26:46;11.68;;;4.05;;
12597;SDS011;6364;53.590;9.956;2023-12-28T04:29:12;8.32;;;3.78;;
12597;SDS011;6364;53.590;9.956;2023-12-28T04:31:40;8.23;;;3.65;;
12597;SDS011;6364;53.590;9.956;2023-12-28T04:34:09;9.30;;;4.10;;
12597;SDS011;6364;53.590;9.956;2023-12-28T04:36:41;7.18;;;3.58;;
12597;SDS011;6364;53.590;9.956;2023-12-28T04:39:08;10.27;;;3.78;;
12597;SDS011;6364;53.590;9.956;2023-12-28T04:41:33;6.18;;;3.83;;
12597;SDS011;6364;53.590;9.956;2023-12-28T04:43:58;8.77;;;3.88;;
12597;SDS011;6364;53.590;9.956;2023-12-28T04:46:24;8.35;;;4.10;;
12597;SDS011;6364;53.590;9.956;2023-12-28T04:48:49;6.28;;;3.50;;
12597;SDS011;6364;53.590;9.956;2023-12-28T04:51:15;8.60;;;4.20;;
12597;SDS011;6364;53.590;9.956;2023-12-28T04:53:40;8.55;;;4.28;;
12597;SDS011;6364;53.590;9.956;2023-12-28T04:56:05;6.35;;;3.63;;
12597;SDS011;6364;53.590;9.956;2023-12-28T04:58:31;6.78;;;3.80;;
12597;SDS011;6364;53.590;9.956;2023-12-28T05:00:56;6.07;;;3.80;;
12597;SDS011;6364;53.590;9.956;2023-12-28T05:03:22;5.60;;;3.80;;
12597;SDS011;6364;53.590;9.956;2023-12-28T05:05:47;5.75;;;3.72;;
12597;SDS011;6364;53.590;9.956;2023-12-28T05:08:13;9.45;;;3.88;;
12597;SDS011;6364;53.590;9.956;2023-12-28T05:10:38;7.72;;;3.70;;
12597;SDS011;6364;53.590;9.956;2023-12-28T05:13:03;8.98;;;3.47;;
12597;SDS011;6364;53.590;9.956;2023-12-28T05:15:29;8.60;;;4.30;;
12597;SDS011;6364;53.590;9.956;2023-12-28T05:17:54;6.53;;;4.10;;
12597;SDS011;6364;53.590;9.956;2023-12-28T05:20:20;8.38;;;4.05;;
12597;SDS011;6364;53.590;9.956;2023-12-28T05:22:45;7.45;;;3.83;;
12597;SDS011;6364;53.590;9.956;2023-12-28T05:25:10;4.88;;;3.88;;
12597;SDS011;6364;53.590;9.956;2023-12-28T05:27:36;7.00;;;3.70;;
12597;SDS011;6364;53.590;9.956;2023-12-28T05:30:01;8.32;;;4.25;;
12597;SDS011;6364;53.590;9.956;2023-12-28T05:32:27;9.27;;;4.47;;
12597;SDS011;6364;53.590;9.956;2023-12-28T05:34:53;8.32;;;4.25;;
12597;SDS011;6364;53.590;9.956;2023-12-28T05:37:18;7.93;;;4.20;;
12597;SDS011;6364;53.590;9.956;2023-12-28T05:39:43;6.75;;;3.78;;
12597;SDS011;6364;53.590;9.956;2023-12-28T05:42:09;6.82;;;3.85;;
12597;SDS011;6364;53.590;9.956;2023-12-28T05:44:34;7.78;;;3.75;;
12597;SDS011;6364;53.590;9.956;2023-12-28T05:46:59;6.47;;;3.92;;
12597;SDS011;6364;53.590;9.956;2023-12-28T05:49:25;8.57;;;4.15;;
12597;SDS011;6364;53.590;9.956;2023-12-28T05:51:50;6.07;;;4.20;;
12597;SDS011;6364;53.590;9.956;2023-12-28T05:54:16;8.77;;;4.20;;
12597;SDS011;6364;53.590;9.956;2023-12-28T05:56:41;10.35;;;4.00;;
12597;SDS011;6364;53.590;9.956;2023-12-28T05:59:07;6.95;;;4.18;;
12597;SDS011;6364;53.590;9.956;2023-12-28T06:01:32;7.25;;;3.50;;
12597;SDS011;6364;53.590;9.956;2023-12-28T06:03:57;8.13;;;3.80;;
12597;SDS011;6364;53.590;9.956;2023-12-28T06:06:23;7.80;;;3.40;;
12597;SDS011;6364;53.590;9.956;2023-12-28T06:08:48;6.78;;;3.90;;
12597;SDS011;6364;53.590;9.956;2023-12-28T06:11:14;10.32;;;4.22;;
12597;SDS011;6364;53.590;9.956;2023-12-28T06:13:39;7.05;;;3.30;;
12597;SDS011;6364;53.590;9.956;2023-12-28T06:16:05;7.95;;;3.42;;
12597;SDS011;6364;53.590;9.956;2023-12-28T06:18:31;10.45;;;4.05;;
12597;SDS011;6364;53.590;9.956;2023-12-28T06:20:56;7.47;;;4.43;;
12597;SDS011;6364;53.590;9.956;2023-12-28T06:23:21;7.55;;;3.95;;
12597;SDS011;6364;53.590;9.956;2023-12-28T06:25:47;7.00;;;3.65;;
12597;SDS011;6364;53.590;9.956;2023-12-28T06:28:12;6.32;;;3.83;;
12597;SDS011;6364;53.590;9.956;2023-12-28T06:30:38;7.60;;;3.72;;
12597;SDS011;6364;53.590;9.956;2023-12-28T06:33:04;9.07;;;3.55;;
12597;SDS011;6364;53.590;9.956;2023-12-28T06:35:30;11.85;;;4.68;;
12597;SDS011;6364;53.590;9.956;2023-12-28T06:37:56;6.95;;;3.90;;
12597;SDS011;6364;53.590;9.956;2023-12-28T06:40:21;8.13;;;3.60;;
12597;SDS011;6364;53.590;9.956;2023-12-28T06:42:46;10.02;;;3.63;;
12597;SDS011;6364;53.590;9.956;2023-12-28T06:45:12;8.80;;;3.70;;
12597;SDS011;6364;53.590;9.956;2023-12-28T06:47:37;7.13;;;3.55;;
12597;SDS011;6364;53.590;9.956;2023-12-28T06:50:03;12.50;;;3.85;;
12597;SDS011;6364;53.590;9.956;2023-12-28T06:52:29;6.72;;;3.38;;
12597;SDS011;6364;53.590;9.956;2023-12-28T06:54:56;13.10;;;3.90;;
12597;SDS011;6364;53.590;9.956;2023-12-28T06:57:22;10.20;;;3.75;;
12597;SDS011;6364;53.590;9.956;2023-12-28T06:59:47;7.78;;;3.28;;
12597;SDS011;6364;53.590;9.956;2023-12-28T07:02:12;9.57;;;3.67;;
12597;SDS011;6364;53.590;9.956;2023-12-28T07:04:38;8.02;;;3.17;;
12597;SDS011;6364;53.590;9.956;2023-12-28T07:07:03;8.95;;;3.47;;
12597;SDS011;6364;53.590;9.956;2023-12-28T07:09:28;6.70;;;3.00;;
12597;SDS011;6364;53.590;9.956;2023-12-28T07:11:54;9.43;;;3.22;;
12597;SDS011;6364;53.590;9.956;2023-12-28T07:14:19;8.73;;;3.50;;
12597;SDS011;6364;53.590;9.956;2023-12-28T07:16:44;8.32;;;3.33;;
12597;SDS011;6364;53.590;9.956;2023-12-28T07:19:10;12.60;;;3.70;;
12597;SDS011;6364;53.590;9.956;2023-12-28T07:21:35;8.10;;;3.08;;
12597;SDS011;6364;53.590;9.956;2023-12-28T07:24:01;6.22;;;2.90;;
12597;SDS011;6364;53.590;9.956;2023-12-28T07:26:26;12.40;;;3.65;;
12597;SDS011;6364;53.590;9.956;2023-12-28T07:28:52;7.63;;;3.25;;
12597;SDS011;6364;53.590;9.956;2023-12-28T07:31:24;7.57;;;3.03;;
12597;SDS011;6364;53.590;9.956;2023-12-28T07:33:53;7.68;;;2.72;;
12597;SDS011;6364;53.590;9.956;2023-12-28T07:36:19;7.05;;;2.88;;
12597;SDS011;6364;53.590;9.956;2023-12-28T07:38:44;5.97;;;3.10;;
12597;SDS011;6364;53.590;9.956;2023-12-28T07:41:10;9.70;;;3.58;;
12597;SDS011;6364;53.590;9.956;2023-12-28T07:43:35;11.90;;;3.30;;
12597;SDS011;6364;53.590;9.956;2023-12-28T07:46:01;12.35;;;3.22;;
12597;SDS011;6364;53.590;9.956;2023-12-28T07:48:27;7.65;;;3.05;;
12597;SDS011;6364;53.590;9.956;2023-12-28T07:50:52;10.43;;;3.55;;
12597;SDS011;6364;53.590;9.956;2023-12-28T07:53:17;7.90;;;3.00;;
12597;SDS011;6364;53.590;9.956;2023-12-28T07:55:43;8.00;;;3.00;;
12597;SDS011;6364;53.590;9.956;2023-12-28T07:58:09;7.43;;;2.70;;
12597;SDS011;6364;53.590;9.956;2023-12-28T08:00:34;8.05;;;3.08;;
12597;SDS011;6364;53.590;9.956;2023-12-28T08:02:59;9.40;;;3.30;;
12597;SDS011;6364;53.590;9.956;2023-12-28T08:05:25;7.88;;;3.53;;
12597;SDS011;6364;53.590;9.956;2023-12-28T08:07:53;11.02;;;2.75;;
12597;SDS011;6364;53.590;9.956;2023-12-28T08:10:19;12.45;;;3.10;;
12597;SDS011;6364;53.590;9.956;2023-12-28T08:12:44;12.40;;;3.05;;
12597;SDS011;6364;53.590;9.956;2023-12-28T08:15:09;9.00;;;2.80;;
12597;SDS011;6364;53.590;9.956;2023-12-28T08:17:35;6.25;;;2.67;;
12597;SDS011;6364;53.590;9.956;2023-12-28T08:20:00;7.68;;;2.60;;
12597;SDS011;6364;53.590;9.956;2023-12-28T08:22:26;10.05;;;2.55;;
12597;SDS011;6364;53.590;9.956;2023-12-28T08:24:53;10.27;;;2.92;;
12597;SDS011;6364;53.590;9.956;2023-12-28T08:27:18;9.07;;;2.78;;
12597;SDS011;6364;53.590;9.956;2023-12-28T08:29:43;11.15;;;2.95;;
12597;SDS011;6364;53.590;9.956;2023-12-28T08:32:09;6.95;;;2.40;;
12597;SDS011;6364;53.590;9.956;2023-12-28T08:34:35;7.40;;;2.38;;
12597;SDS011;6364;53.590;9.956;2023-12-28T08:37:01;12.18;;;3.42;;
12597;SDS011;6364;53.590;9.956;2023-12-28T08:39:26;12.98;;;2.97;;
12597;SDS011;6364;53.590;9.956;2023-12-28T08:41:51;8.98;;;2.95;;
12597;SDS011;6364;53.590;9.956;2023-12-28T08:44:17;11.25;;;2.78;;
12597;SDS011;6364;53.590;9.956;2023-12-28T08:46:42;15.43;;;3.05;;
12597;SDS011;6364;53.590;9.956;2023-12-28T08:49:07;9.27;;;2.20;;
12597;SDS011;6364;53.590;9.956;2023-12-28T08:51:33;11.77;;;2.75;;
12597;SDS011;6364;53.590;9.956;2023-12-28T08:53:58;10.52;;;3.25;;
12597;SDS011;6364;53.590;9.956;2023-12-28T08:56:24;7.72;;;2.63;;
12597;SDS011;6364;53.590;9.956;2023-12-28T08:58:50;8.40;;;2.78;;
12597;SDS011;6364;53.590;9.956;2023-12-28T09:01:18;8.23;;;2.22;;
12597;SDS011;6364;53.590;9.956;2023-12-28T09:03:51;9.10;;;2.90;;
12597;SDS011;6364;53.590;9.956;2023-12-28T09:06:17;9.05;;;2.58;;
12597;SDS011;6364;53.590;9.956;2023-12-28T09:08:49;13.43;;;3.58;;
12597;SDS011;6364;53.590;9.956;2023-12-28T09:11:16;12.60;;;2.75;;
12597;SDS011;6364;53.590;9.956;2023-12-28T09:13:41;7.88;;;2.22;;
12597;SDS011;6364;53.590;9.956;2023-12-28T09:16:08;14.35;;;2.70;;
12597;SDS011;6364;53.590;9.956;2023-12-28T09:18:35;7.28;;;2.63;;
12597;SDS011;6364;53.590;9.956;2023-12-28T09:21:03;12.35;;;3.05;;
12597;SDS011;6364;53.590;9.956;2023-12-28T09:23:30;8.40;;;2.85;;
12597;SDS011;6364;53.590;9.956;2023-12-28T09:25:56;13.70;;;3.17;;
12597;SDS011;6364;53.590;9.956;2023-12-28T09:28:25;10.55;;;2.78;;
12597;SDS011;6364;53.590;9.956;2023-12-28T09:30:51;8.77;;;2.60;;
12597;SDS011;6364;53.590;9.956;2023-12-28T09:33:16;13.13;;;2.67;;
12597;SDS011;6364;53.590;9.956;2023-12-28T09:35:42;12.10;;;2.28;;
12597;SDS011;6364;53.590;9.956;2023-12-28T09:38:07;8.80;;;2.30;;
12597;SDS011;6364;53.590;9.956;2023-12-28T09:40:33;11.80;;;2.65;;
12597;SDS011;6364;53.590;9.956;2023-12-28T09:43:23;8.70;;;2.22;;
12597;SDS011;6364;53.590;9.956;2023-12-28T09:45:48;13.45;;;2.47;;
12597;SDS011;6364;53.590;9.956;2023-12-28T09:48:17;10.75;;;2.58;;
12597;SDS011;6364;53.590;9.956;2023-12-28T09:50:49;7.78;;;2.35;;
12597;SDS011;6364;53.590;9.956;2023-12-28T09:53:16;8.65;;;2.20;;
12597;SDS011;6364;53.590;9.956;2023-12-28T09:55:42;12.63;;;2.88;;
12597;SDS011;6364;53.590;9.956;2023-12-28T09:58:07;9.85;;;2.28;;
12597;SDS011;6364;53.590;9.956;2023-12-28T10:00:34;12.90;;;3.15;;
12597;SDS011;6364;53.590;9.956;2023-12-28T10:02:59;12.27;;;3.05;;
12597;SDS011;6364;53.590;9.956;2023-12-28T10:05:25;8.65;;;2.05;;
12597;SDS011;6364;53.590;9.956;2023-12-28T10:07:50;13.32;;;2.50;;
12597;SDS011;6364;53.590;9.956;2023-12-28T10:10:16;8.75;;;2.67;;
12597;SDS011;6364;53.590;9.956;2023-12-28T10:12:42;11.70;;;2.72;;
12597;SDS011;6364;53.590;9.956;2023-12-28T10:15:07;15.65;;;3.35;;
12597;SDS011;6364;53.590;9.956;2023-12-28T10:17:33;14.07;;;2.72;;
12597;SDS011;6364;53.590;9.956;2023-12-28T10:20:02;12.93;;;2.80;;
12597;SDS011;6364;53.590;9.956;2023-12-28T10:22:30;12.60;;;2.72;;
12597;SDS011;6364;53.590;9.956;2023-12-28T10:24:57;15.20;;;2.70;;
12597;SDS011;6364;53.590;9.956;2023-12-28T10:27:24;6.28;;;1.88;;
12597;SDS011;6364;53.590;9.956;2023-12-28T10:29:52;11.52;;;2.53;;
12597;SDS011;6364;53.590;9.956;2023-12-28T10:32:18;12.45;;;2.60;;
12597;SDS011;6364;53.590;9.956;2023-12-28T10:34:44;14.43;;;2.90;;
12597;SDS011;6364;53.590;9.956;2023-12-28T10:37:10;10.73;;;2.53;;
12597;SDS011;6364;53.590;9.956;2023-12-28T10:39:36;8.73;;;2.95;;
12597;SDS011;6364;53.590;9.956;2023-12-28T10:42:03;14.27;;;2.55;;
12597;SDS011;6364;53.590;9.956;2023-12-28T10:44:37;11.15;;;2.80;;
12597;SDS011;6364;53.590;9.956;2023-12-28T10:47:06;11.77;;;2.40;;
12597;SDS011;6364;53.590;9.956;2023-12-28T10:49:33;13.23;;;3.10;;
12597;SDS011;6364;53.590;9.956;2023-12-28T10:52:00;15.38;;;2.63;;
12597;SDS011;6364;53.590;9.956;2023-12-28T10:57:22;12.93;;;2.40;;
12597;SDS011;6364;53.590;9.956;2023-12-28T11:00:03;13.25;;;2.90;;
12597;SDS011;6364;53.590;9.956;2023-12-28T11:02:37;9.63;;;2.60;;
12597;SDS011;6364;53.590;9.956;2023-12-28T11:05:05;12.48;;;3.20;;
12597;SDS011;6364;53.590;9.956;2023-12-28T11:07:31;10.55;;;2.55;;
12597;SDS011;6364;53.590;9.956;2023-12-28T11:09:59;17.83;;;3.15;;
12597;SDS011;6364;53.590;9.956;2023-12-28T11:12:26;10.90;;;2.60;;
12597;SDS011;6364;53.590;9.956;2023-12-28T11:14:52;12.18;;;2.75;;
12597;SDS011;6364;53.590;9.956;2023-12-28T11:17:18;8.98;;;2.65;;
12597;SDS011;6364;53.590;9.956;2023-12-28T11:19:44;14.75;;;3.03;;
12597;SDS011;6364;53.590;9.956;2023-12-28T11:22:10;15.30;;;2.92;;
12597;SDS011;6364;53.590;9.956;2023-12-28T11:24:35;14.60;;;2.80;;
12597;SDS011;6364;53.590;9.956;2023-12-28T11:27:01;11.38;;;3.08;;
12597;SDS011;6364;53.590;9.956;2023-12-28T11:29:28;11.18;;;2.90;;
12597;SDS011;6364;53.590;9.956;2023-12-28T11:31:56;9.95;;;2.40;;
12597;SDS011;6364;53.590;9.956;2023-12-28T11:34:25;13.80;;;3.05;;
12597;SDS011;6364;53.590;9.956;2023-12-28T11:36:54;14.68;;;3.05;;
12597;SDS011;6364;53.590;9.956;2023-12-28T11:39:33;16.13;;;3.08;;
12597;SDS011;6364;53.590;9.956;2023-12-28T11:42:00;10.65;;;3.20;;
12597;SDS011;6364;53.590;9.956;2023-12-28T11:44:29;11.98;;;2.75;;
12597;SDS011;6364;53.590;9.956;2023-12-28T11:46:55;13.75;;;3.25;;
12597;SDS011;6364;53.590;9.956;2023-12-28T11:49:26;12.02;;;2.70;;
12597;SDS011;6364;53.590;9.956;2023-12-28T11:51:54;13.45;;;3.25;;
12597;SDS011;6364;53.590;9.956;2023-12-28T11:54:26;12.20;;;3.53;;
12597;SDS011;6364;53.590;9.956;2023-12-28T11:56:52;20.17;;;3.70;;
12597;SDS011;6364;53.590;9.956;2023-12-28T11:59:18;16.35;;;2.85;;
12597;SDS011;6364;53.590;9.956;2023-12-28T12:01:48;15.85;;;3.17;;
12597;SDS011;6364;53.590;9.956;2023-12-28T12:04:20;14.70;;;3.25;;
12597;SDS011;6364;53.590;9.956;2023-12-28T12:06:46;19.33;;;3.35;;
12597;SDS011;6364;53.590;9.956;2023-12-28T12:09:12;19.48;;;3.67;;
12597;SDS011;6364;53.590;9.956;2023-12-28T12:11:38;18.67;;;3.50;;
12597;SDS011;6364;53.590;9.956;2023-12-28T12:14:07;21.77;;;3.83;;
12597;SDS011;6364;53.590;9.956;2023-12-28T12:16:34;15.02;;;3.33;;
12597;SDS011;6364;53.590;9.956;2023-12-28T12:19:00;16.95;;;3.35;;
12597;SDS011;6364;53.590;9.956;2023-12-28T12:21:26;19.50;;;3.10;;
12597;SDS011;6364;53.590;9.956;2023-12-28T12:23:52;18.67;;;3.78;;
12597;SDS011;6364;53.590;9.956;2023-12-28T12:26:17;17.92;;;3.58;;
12597;SDS011;6364;53.590;9.956;2023-12-28T12:28:43;24.95;;;3.60;;
12597;SDS011;6364;53.590;9.956;2023-12-28T12:31:10;20.77;;;4.65;;
12597;SDS011;6364;53.590;9.956;2023-12-28T12:33:35;16.67;;;3.90;;
12597;SDS011;6364;53.590;9.956;2023-12-28T12:36:01;19.92;;;4.53;;
12597;SDS011;6364;53.590;9.956;2023-12-28T12:38:27;17.33;;;3.30;;
12597;SDS011;6364;53.590;9.956;2023-12-28T12:40:52;13.07;;;3.20;;
12597;SDS011;6364;53.590;9.956;2023-12-28T12:43:18;23.70;;;4.00;;
12597;SDS011;6364;53.590;9.956;2023-12-28T12:45:44;17.55;;;3.70;;
12597;SDS011;6364;53.590;9.956;2023-12-28T12:48:11;13.50;;;2.95;;
12597;SDS011;6364;53.590;9.956;2023-12-28T12:50:36;19.92;;;3.90;;
12597;SDS011;6364;53.590;9.956;2023-12-28T12:53:04;18.08;;;3.17;;
12597;SDS011;6364;53.590;9.956;2023-12-28T12:55:30;19.52;;;3.65;;
12597;SDS011;6364;53.590;9.956;2023-12-28T12:57:55;23.70;;;3.90;;
12597;SDS011;6364;53.590;9.956;2023-12-28T13:00:21;21.33;;;3.40;;
12597;SDS011;6364;53.590;9.956;2023-12-28T13:02:49;15.73;;;3.15;;
12597;SDS011;6364;53.590;9.956;2023-12-28T13:07:46;15.10;;;3.10;;
12597;SDS011;6364;53.590;9.956;2023-12-28T13:10:12;16.92;;;2.72;;
12597;SDS011;6364;53.590;9.956;2023-12-28T13:12:37;12.55;;;2.95;;
12597;SDS011;6364;53.590;9.956;2023-12-28T13:15:03;21.88;;;3.50;;
12597;SDS011;6364;53.590;9.956;2023-12-28T13:17:29;11.15;;;2.95;;
12597;SDS011;6364;53.590;9.956;2023-12-28T13:19:54;16.40;;;3.10;;
12597;SDS011;6364;53.590;9.956;2023-12-28T13:22:19;20.83;;;3.45;;
12597;SDS011;6364;53.590;9.956;2023-12-28T13:24:45;17.58;;;2.85;;
12597;SDS011;6364;53.590;9.956;2023-12-28T13:27:10;12.43;;;2.33;;
12597;SDS011;6364;53.590;9.956;2023-12-28T13:29:36;18.92;;;3.33;;
12597;SDS011;6364;53.590;9.956;2023-12-28T13:32:01;19.60;;;3.28;;
12597;SDS011;6364;53.590;9.956;2023-12-28T13:34:27;21.42;;;3.53;;
12597;SDS011;6364;53.590;9.956;2023-12-28T13:36:53;19.60;;;4.30;;
12597;SDS011;6364;53.590;9.956;2023-12-28T13:39:19;15.57;;;3.25;;
12597;SDS011;6364;53.590;9.956;2023-12-28T13:41:44;20.40;;;3.38;;
12597;SDS011;6364;53.590;9.956;2023-12-28T13:44:10;10.77;;;2.88;;
12597;SDS011;6364;53.590;9.956;2023-12-28T13:46:37;14.70;;;3.10;;
12597;SDS011;6364;53.590;9.956;2023-12-28T13:49:03;17.40;;;3.90;;
12597;SDS011;6364;53.590;9.956;2023-12-28T13:51:32;15.38;;;3.17;;
12597;SDS011;6364;53.590;9.956;2023-12-28T13:53:58;15.35;;;3.05;;
12597;SDS011;6364;53.590;9.956;2023-12-28T13:56:23;17.52;;;3.08;;
12597;SDS011;6364;53.590;9.956;2023-12-28T13:58:49;12.63;;;3.28;;
12597;SDS011;6364;53.590;9.956;2023-12-28T14:01:14;16.48;;;3.95;;
12597;SDS011;6364;53.590;9.956;2023-12-28T14:03:39;16.13;;;3.28;;
12597;SDS011;6364;53.590;9.956;2023-12-28T14:06:05;17.13;;;3.22;;
12597;SDS011;6364;53.590;9.956;2023-12-28T14:08:30;15.90;;;3.22;;
12597;SDS011;6364;53.590;9.956;2023-12-28T14:10:56;20.65;;;5.10;;
12597;SDS011;6364;53.590;9.956;2023-12-28T14:13:21;22.52;;;4.43;;
12597;SDS011;6364;53.590;9.956;2023-12-28T14:15:47;19.80;;;4.10;;
12597;SDS011;6364;53.590;9.956;2023-12-28T14:18:12;28.05;;;7.85;;
12597;SDS011;6364;53.590;9.956;2023-12-28T14:20:38;22.83;;;6.15;;
12597;SDS011;6364;53.590;9.956;2023-12-28T14:23:03;23.35;;;7.90;;
12597;SDS011;6364;53.590;9.956;2023-12-28T14:25:29;24.75;;;11.05;;
12597;SDS011;6364;53.590;9.956;2023-12-28T14:27:55;34.45;;;11.82;;
12597;SDS011;6364;53.590;9.956;2023-12-28T14:30:21;28.90;;;10.52;;
12597;SDS011;6364;53.590;9.956;2023-12-28T14:32:47;34.67;;;14.52;;
12597;SDS011;6364;53.590;9.956;2023-12-28T14:35:13;20.75;;;5.00;;
12597;SDS011;6364;53.590;9.956;2023-12-28T14:37:41;34.78;;;10.85;;
12597;SDS011;6364;53.590;9.956;2023-12-28T14:40:07;26.50;;;7.47;;
12597;SDS011;6364;53.590;9.956;2023-12-28T14:42:34;26.58;;;9.88;;
12597;SDS011;6364;53.590;9.956;2023-12-28T14:45:00;17.33;;;6.30;;
12597;SDS011;6364;53.590;9.956;2023-12-28T14:47:28;24.70;;;9.48;;
12597;SDS011;6364;53.590;9.956;2023-12-28T14:49:54;23.30;;;7.32;;
12597;SDS011;6364;53.590;9.956;2023-12-28T14:52:22;17.90;;;4.55;;
12597;SDS011;6364;53.590;9.956;2023-12-28T14:54:48;24.63;;;7.47;;
12597;SDS011;6364;53.590;9.956;2023-12-28T14:57:15;30.20;;;11.02;;